sensor_id;sensor_type;location;lat;lon;timestamp;P1;durP1;ratioP1;P2;durP2;ratioP2
11988;SDS011;6054;50.966;7.094;2023-05-29T00:00:57;5.03;;;3.38;;
11988;SDS011;6054;50.966;7.094;2023-05-29T00:03:24;8.13;;;3.08;;
11988;SDS011;6054;50.966;7.094;2023-05-29T00:05:53;3.92;;;2.75;;
11988;SDS011;6054;50.966;7.094;2023-05-29T00:08:19;5.75;;;2.92;;
11988;SDS011;6054;50.966;7.094;2023-05-29T00:10:46;4.40;;;2.85;;
11988;SDS011;6054;50.966;7.094;2023-05-29T00:13:13;4.35;;;2.80;;
11988;SDS011;6054;50.966;7.094;2023-05-29T00:15:39;6.70;;;2.80;;
11988;SDS011;6054;50.966;7.094;2023-05-29T00:18:06;5.53;;;3.45;;
11988;SDS011;6054;50.966;7.094;2023-05-29T00:20:33;7.03;;;2.97;;
11988;SDS011;6054;50.966;7.094;2023-05-29T00:23:02;4.32;;;2.80;;
11988;SDS011;6054;50.966;7.094;2023-05-29T00:25:31;6.68;;;3.30;;
11988;SDS011;6054;50.966;7.094;2023-05-29T00:27:58;5.10;;;2.88;;
11988;SDS011;6054;50.966;7.094;2023-05-29T00:30:24;5.85;;;3.00;;
11988;SDS011;6054;50.966;7.094;2023-05-29T00:32:51;4.38;;;2.80;;
11988;SDS011;6054;50.966;7.094;2023-05-29T00:35:19;5.88;;;3.20;;
11988;SDS011;6054;50.966;7.094;2023-05-29T00:37:46;5.95;;;2.97;;
11988;SDS011;6054;50.966;7.094;2023-05-29T00:40:14;6.40;;;2.97;;
11988;SDS011;6054;50.966;7.094;2023-05-29T00:42:41;6.65;;;3.13;;
11988;SDS011;6054;50.966;7.094;2023-05-29T00:45:07;8.55;;;3.38;;
11988;SDS011;6054;50.966;7.094;2023-05-29T00:47:35;5.18;;;3.08;;
11988;SDS011;6054;50.966;7.094;2023-05-29T00:50:03;4.07;;;2.90;;
11988;SDS011;6054;50.966;7.094;2023-05-29T00:52:30;3.90;;;2.90;;
11988;SDS011;6054;50.966;7.094;2023-05-29T00:54:58;5.13;;;2.95;;
11988;SDS011;6054;50.966;7.094;2023-05-29T00:57:28;5.43;;;2.47;;
11988;SDS011;6054;50.966;7.094;2023-05-29T00:59:55;3.65;;;2.83;;
11988;SDS011;6054;50.966;7.094;2023-05-29T01:02:23;5.20;;;2.65;;
11988;SDS011;6054;50.966;7.094;2023-05-29T01:04:50;5.82;;;3.20;;
11988;SDS011;6054;50.966;7.094;2023-05-29T01:07:19;5.78;;;2.70;;
11988;SDS011;6054;50.966;7.094;2023-05-29T01:09:46;5.75;;;3.45;;
11988;SDS011;6054;50.966;7.094;2023-05-29T01:12:15;7.00;;;2.67;;
11988;SDS011;6054;50.966;7.094;2023-05-29T01:14:52;5.38;;;3.17;;
11988;SDS011;6054;50.966;7.094;2023-05-29T01:17:37;5.45;;;2.97;;
11988;SDS011;6054;50.966;7.094;2023-05-29T01:20:16;6.38;;;2.78;;
11988;SDS011;6054;50.966;7.094;2023-05-29T01:25:56;4.07;;;2.72;;
11988;SDS011;6054;50.966;7.094;2023-05-29T01:28:37;5.57;;;3.33;;
11988;SDS011;6054;50.966;7.094;2023-05-29T01:31:07;5.78;;;3.03;;
11988;SDS011;6054;50.966;7.094;2023-05-29T01:33:38;5.35;;;3.08;;
11988;SDS011;6054;50.966;7.094;2023-05-29T01:36:06;5.50;;;2.75;;
11988;SDS011;6054;50.966;7.094;2023-05-29T01:38:34;4.25;;;2.72;;
11988;SDS011;6054;50.966;7.094;2023-05-29T01:41:01;5.70;;;2.90;;
11988;SDS011;6054;50.966;7.094;2023-05-29T01:43:29;5.95;;;3.15;;
11988;SDS011;6054;50.966;7.094;2023-05-29T01:45:58;5.35;;;2.90;;
11988;SDS011;6054;50.966;7.094;2023-05-29T01:48:27;4.05;;;2.55;;
11988;SDS011;6054;50.966;7.094;2023-05-29T01:50:54;4.50;;;2.53;;
11988;SDS011;6054;50.966;7.094;2023-05-29T01:53:22;4.95;;;3.03;;
11988;SDS011;6054;50.966;7.094;2023-05-29T01:55:49;3.53;;;2.85;;
11988;SDS011;6054;50.966;7.094;2023-05-29T01:58:17;5.03;;;2.90;;
11988;SDS011;6054;50.966;7.094;2023-05-29T02:00:46;5.15;;;3.10;;
11988;SDS011;6054;50.966;7.094;2023-05-29T02:03:14;7.75;;;3.20;;
11988;SDS011;6054;50.966;7.094;2023-05-29T02:05:41;4.47;;;2.88;;
11988;SDS011;6054;50.966;7.094;2023-05-29T02:08:07;7.65;;;2.85;;
11988;SDS011;6054;50.966;7.094;2023-05-29T02:10:34;5.32;;;3.00;;
11988;SDS011;6054;50.966;7.094;2023-05-29T02:13:01;3.97;;;2.88;;
11988;SDS011;6054;50.966;7.094;2023-05-29T02:15:28;7.05;;;3.50;;
11988;SDS011;6054;50.966;7.094;2023-05-29T02:17:55;3.60;;;2.70;;
11988;SDS011;6054;50.966;7.094;2023-05-29T02:20:23;6.22;;;3.08;;
11988;SDS011;6054;50.966;7.094;2023-05-29T02:22:50;5.75;;;2.80;;
11988;SDS011;6054;50.966;7.094;2023-05-29T02:25:17;5.50;;;2.85;;
11988;SDS011;6054;50.966;7.094;2023-05-29T02:27:44;4.78;;;2.97;;
11988;SDS011;6054;50.966;7.094;2023-05-29T02:30:11;5.97;;;2.85;;
11988;SDS011;6054;50.966;7.094;2023-05-29T02:32:37;4.70;;;2.63;;
11988;SDS011;6054;50.966;7.094;2023-05-29T02:35:05;6.28;;;2.75;;
11988;SDS011;6054;50.966;7.094;2023-05-29T02:37:33;6.60;;;2.72;;
11988;SDS011;6054;50.966;7.094;2023-05-29T02:40:00;6.50;;;3.20;;
11988;SDS011;6054;50.966;7.094;2023-05-29T02:42:27;6.60;;;2.95;;
11988;SDS011;6054;50.966;7.094;2023-05-29T02:44:54;4.35;;;2.78;;
11988;SDS011;6054;50.966;7.094;2023-05-29T02:47:21;3.63;;;2.80;;
11988;SDS011;6054;50.966;7.094;2023-05-29T02:49:47;5.03;;;2.63;;
11988;SDS011;6054;50.966;7.094;2023-05-29T02:52:14;7.43;;;2.78;;
11988;SDS011;6054;50.966;7.094;2023-05-29T02:54:42;5.20;;;2.80;;
11988;SDS011;6054;50.966;7.094;2023-05-29T02:57:09;3.75;;;3.35;;
11988;SDS011;6054;50.966;7.094;2023-05-29T02:59:36;4.13;;;2.67;;
11988;SDS011;6054;50.966;7.094;2023-05-29T03:02:03;5.95;;;2.65;;
11988;SDS011;6054;50.966;7.094;2023-05-29T03:04:30;5.30;;;3.10;;
11988;SDS011;6054;50.966;7.094;2023-05-29T03:06:56;6.63;;;2.88;;
11988;SDS011;6054;50.966;7.094;2023-05-29T03:09:23;6.22;;;2.88;;
11988;SDS011;6054;50.966;7.094;2023-05-29T03:11:51;7.43;;;2.88;;
11988;SDS011;6054;50.966;7.094;2023-05-29T03:14:18;5.88;;;2.63;;
11988;SDS011;6054;50.966;7.094;2023-05-29T03:16:46;4.93;;;3.05;;
11988;SDS011;6054;50.966;7.094;2023-05-29T03:19:14;4.82;;;2.65;;
11988;SDS011;6054;50.966;7.094;2023-05-29T03:21:41;5.72;;;3.00;;
11988;SDS011;6054;50.966;7.094;2023-05-29T03:24:08;4.47;;;2.78;;
11988;SDS011;6054;50.966;7.094;2023-05-29T03:26:35;7.45;;;3.35;;
11988;SDS011;6054;50.966;7.094;2023-05-29T03:29:03;4.15;;;2.92;;
11988;SDS011;6054;50.966;7.094;2023-05-29T03:31:30;7.70;;;3.03;;
11988;SDS011;6054;50.966;7.094;2023-05-29T03:33:58;9.05;;;4.03;;
11988;SDS011;6054;50.966;7.094;2023-05-29T03:36:25;6.32;;;2.90;;
11988;SDS011;6054;50.966;7.094;2023-05-29T03:38:52;4.80;;;3.25;;
11988;SDS011;6054;50.966;7.094;2023-05-29T03:41:19;7.40;;;3.47;;
11988;SDS011;6054;50.966;7.094;2023-05-29T03:43:45;5.10;;;3.08;;
11988;SDS011;6054;50.966;7.094;2023-05-29T03:46:14;6.25;;;3.05;;
11988;SDS011;6054;50.966;7.094;2023-05-29T03:48:40;7.07;;;3.75;;
11988;SDS011;6054;50.966;7.094;2023-05-29T03:51:07;5.03;;;3.30;;
11988;SDS011;6054;50.966;7.094;2023-05-29T03:53:35;4.85;;;2.97;;
11988;SDS011;6054;50.966;7.094;2023-05-29T03:56:01;7.72;;;3.53;;
11988;SDS011;6054;50.966;7.094;2023-05-29T03:58:28;6.13;;;3.63;;
11988;SDS011;6054;50.966;7.094;2023-05-29T04:00:55;6.78;;;3.55;;
11988;SDS011;6054;50.966;7.094;2023-05-29T04:03:23;5.25;;;3.40;;
11988;SDS011;6054;50.966;7.094;2023-05-29T04:05:50;9.02;;;3.65;;
11988;SDS011;6054;50.966;7.094;2023-05-29T04:08:17;7.00;;;3.72;;
11988;SDS011;6054;50.966;7.094;2023-05-29T04:10:44;10.82;;;4.07;;
11988;SDS011;6054;50.966;7.094;2023-05-29T04:13:11;8.80;;;3.80;;
11988;SDS011;6054;50.966;7.094;2023-05-29T04:15:38;8.88;;;4.10;;
11988;SDS011;6054;50.966;7.094;2023-05-29T04:18:06;8.80;;;3.30;;
11988;SDS011;6054;50.966;7.094;2023-05-29T04:20:34;7.07;;;3.38;;
11988;SDS011;6054;50.966;7.094;2023-05-29T04:23:01;7.05;;;3.55;;
11988;SDS011;6054;50.966;7.094;2023-05-29T04:25:28;8.20;;;4.10;;
11988;SDS011;6054;50.966;7.094;2023-05-29T04:27:55;10.60;;;3.75;;
11988;SDS011;6054;50.966;7.094;2023-05-29T04:30:21;7.72;;;3.72;;
11988;SDS011;6054;50.966;7.094;2023-05-29T04:32:48;7.82;;;3.72;;
11988;SDS011;6054;50.966;7.094;2023-05-29T04:35:17;8.77;;;3.97;;
11988;SDS011;6054;50.966;7.094;2023-05-29T04:37:45;10.40;;;3.92;;
11988;SDS011;6054;50.966;7.094;2023-05-29T04:40:12;8.48;;;3.63;;
11988;SDS011;6054;50.966;7.094;2023-05-29T04:42:42;10.60;;;3.60;;
11988;SDS011;6054;50.966;7.094;2023-05-29T04:45:10;8.50;;;3.78;;
11988;SDS011;6054;50.966;7.094;2023-05-29T04:47:37;11.05;;;4.15;;
11988;SDS011;6054;50.966;7.094;2023-05-29T04:50:09;8.50;;;3.90;;
11988;SDS011;6054;50.966;7.094;2023-05-29T04:52:37;8.82;;;4.18;;
11988;SDS011;6054;50.966;7.094;2023-05-29T04:55:05;8.15;;;3.63;;
11988;SDS011;6054;50.966;7.094;2023-05-29T04:57:32;9.25;;;3.78;;
11988;SDS011;6054;50.966;7.094;2023-05-29T04:59:59;11.48;;;4.50;;
11988;SDS011;6054;50.966;7.094;2023-05-29T05:02:26;11.98;;;3.70;;
11988;SDS011;6054;50.966;7.094;2023-05-29T05:04:53;8.27;;;3.83;;
11988;SDS011;6054;50.966;7.094;2023-05-29T05:07:20;9.77;;;4.00;;
11988;SDS011;6054;50.966;7.094;2023-05-29T05:09:47;12.60;;;3.95;;
11988;SDS011;6054;50.966;7.094;2023-05-29T05:12:15;8.93;;;3.63;;
11988;SDS011;6054;50.966;7.094;2023-05-29T05:14:42;10.38;;;4.10;;
11988;SDS011;6054;50.966;7.094;2023-05-29T05:17:08;11.60;;;3.90;;
11988;SDS011;6054;50.966;7.094;2023-05-29T05:19:35;11.07;;;4.20;;
11988;SDS011;6054;50.966;7.094;2023-05-29T05:22:02;8.05;;;4.10;;
11988;SDS011;6054;50.966;7.094;2023-05-29T05:24:29;8.25;;;4.03;;
11988;SDS011;6054;50.966;7.094;2023-05-29T05:26:57;7.40;;;3.83;;
11988;SDS011;6054;50.966;7.094;2023-05-29T05:29:26;8.88;;;3.97;;
11988;SDS011;6054;50.966;7.094;2023-05-29T05:31:52;9.93;;;3.70;;
11988;SDS011;6054;50.966;7.094;2023-05-29T05:34:20;11.25;;;3.75;;
11988;SDS011;6054;50.966;7.094;2023-05-29T05:36:46;8.23;;;3.92;;
11988;SDS011;6054;50.966;7.094;2023-05-29T05:39:14;9.93;;;4.45;;
11988;SDS011;6054;50.966;7.094;2023-05-29T05:41:41;11.25;;;4.35;;
11988;SDS011;6054;50.966;7.094;2023-05-29T05:44:07;10.00;;;4.28;;
11988;SDS011;6054;50.966;7.094;2023-05-29T05:46:36;10.63;;;4.78;;
11988;SDS011;6054;50.966;7.094;2023-05-29T05:49:03;7.70;;;4.00;;
11988;SDS011;6054;50.966;7.094;2023-05-29T05:51:30;9.90;;;4.43;;
11988;SDS011;6054;50.966;7.094;2023-05-29T05:53:57;11.48;;;5.00;;
11988;SDS011;6054;50.966;7.094;2023-05-29T05:56:24;7.22;;;3.97;;
11988;SDS011;6054;50.966;7.094;2023-05-29T05:58:51;7.78;;;3.92;;
11988;SDS011;6054;50.966;7.094;2023-05-29T06:01:18;9.80;;;4.25;;
11988;SDS011;6054;50.966;7.094;2023-05-29T06:03:46;11.68;;;4.25;;
11988;SDS011;6054;50.966;7.094;2023-05-29T06:06:13;10.15;;;4.40;;
11988;SDS011;6054;50.966;7.094;2023-05-29T06:08:42;11.57;;;4.57;;
11988;SDS011;6054;50.966;7.094;2023-05-29T06:11:10;11.13;;;4.78;;
11988;SDS011;6054;50.966;7.094;2023-05-29T06:13:36;10.52;;;4.22;;
11988;SDS011;6054;50.966;7.094;2023-05-29T06:16:03;11.63;;;4.47;;
11988;SDS011;6054;50.966;7.094;2023-05-29T06:18:31;12.13;;;4.85;;
11988;SDS011;6054;50.966;7.094;2023-05-29T06:20:59;12.68;;;4.18;;
11988;SDS011;6054;50.966;7.094;2023-05-29T06:23:26;6.03;;;3.60;;
11988;SDS011;6054;50.966;7.094;2023-05-29T06:25:53;11.75;;;4.13;;
11988;SDS011;6054;50.966;7.094;2023-05-29T06:28:20;9.45;;;4.15;;
11988;SDS011;6054;50.966;7.094;2023-05-29T06:30:46;6.75;;;3.42;;
11988;SDS011;6054;50.966;7.094;2023-05-29T06:33:13;9.25;;;3.40;;
11988;SDS011;6054;50.966;7.094;2023-05-29T06:35:40;6.18;;;3.38;;
11988;SDS011;6054;50.966;7.094;2023-05-29T06:38:08;11.73;;;3.95;;
11988;SDS011;6054;50.966;7.094;2023-05-29T06:40:35;7.60;;;3.45;;
11988;SDS011;6054;50.966;7.094;2023-05-29T06:43:03;8.95;;;3.17;;
11988;SDS011;6054;50.966;7.094;2023-05-29T06:45:30;8.38;;;3.63;;
11988;SDS011;6054;50.966;7.094;2023-05-29T06:47:57;9.60;;;3.50;;
11988;SDS011;6054;50.966;7.094;2023-05-29T06:50:24;9.15;;;3.92;;
11988;SDS011;6054;50.966;7.094;2023-05-29T06:52:51;7.68;;;3.60;;
11988;SDS011;6054;50.966;7.094;2023-05-29T06:55:19;10.07;;;3.95;;
11988;SDS011;6054;50.966;7.094;2023-05-29T06:57:46;7.45;;;3.45;;
11988;SDS011;6054;50.966;7.094;2023-05-29T07:00:13;7.05;;;3.47;;
11988;SDS011;6054;50.966;7.094;2023-05-29T07:02:40;13.82;;;3.35;;
11988;SDS011;6054;50.966;7.094;2023-05-29T07:05:07;9.88;;;3.55;;
11988;SDS011;6054;50.966;7.094;2023-05-29T07:07:34;7.40;;;3.25;;
11988;SDS011;6054;50.966;7.094;2023-05-29T07:10:01;8.43;;;3.70;;
11988;SDS011;6054;50.966;7.094;2023-05-29T07:12:29;8.00;;;3.42;;
11988;SDS011;6054;50.966;7.094;2023-05-29T07:14:56;6.65;;;3.50;;
11988;SDS011;6054;50.966;7.094;2023-05-29T07:17:23;9.18;;;3.63;;
11988;SDS011;6054;50.966;7.094;2023-05-29T07:19:49;9.70;;;3.35;;
11988;SDS011;6054;50.966;7.094;2023-05-29T07:22:16;7.82;;;3.50;;
11988;SDS011;6054;50.966;7.094;2023-05-29T07:24:43;11.45;;;3.60;;
11988;SDS011;6054;50.966;7.094;2023-05-29T07:27:11;10.98;;;3.25;;
11988;SDS011;6054;50.966;7.094;2023-05-29T07:29:39;9.70;;;3.92;;
11988;SDS011;6054;50.966;7.094;2023-05-29T07:32:06;9.38;;;3.70;;
11988;SDS011;6054;50.966;7.094;2023-05-29T07:34:33;10.40;;;4.10;;
11988;SDS011;6054;50.966;7.094;2023-05-29T07:37:00;7.40;;;3.85;;
11988;SDS011;6054;50.966;7.094;2023-05-29T07:39:28;10.75;;;3.47;;
11988;SDS011;6054;50.966;7.094;2023-05-29T07:41:55;8.55;;;3.38;;
11988;SDS011;6054;50.966;7.094;2023-05-29T07:44:22;12.65;;;3.88;;
11988;SDS011;6054;50.966;7.094;2023-05-29T07:46:51;7.60;;;3.78;;
11988;SDS011;6054;50.966;7.094;2023-05-29T07:49:18;10.10;;;3.85;;
11988;SDS011;6054;50.966;7.094;2023-05-29T07:51:45;9.82;;;3.85;;
11988;SDS011;6054;50.966;7.094;2023-05-29T07:54:12;8.15;;;3.70;;
11988;SDS011;6054;50.966;7.094;2023-05-29T07:56:42;9.85;;;4.00;;
11988;SDS011;6054;50.966;7.094;2023-05-29T07:59:09;7.30;;;3.60;;
11988;SDS011;6054;50.966;7.094;2023-05-29T08:01:36;8.07;;;3.72;;
11988;SDS011;6054;50.966;7.094;2023-05-29T08:04:05;7.05;;;3.42;;
11988;SDS011;6054;50.966;7.094;2023-05-29T08:06:32;8.13;;;3.47;;
11988;SDS011;6054;50.966;7.094;2023-05-29T08:08:59;8.73;;;3.53;;
11988;SDS011;6054;50.966;7.094;2023-05-29T08:11:26;8.35;;;3.50;;
11988;SDS011;6054;50.966;7.094;2023-05-29T08:13:53;8.15;;;3.40;;
11988;SDS011;6054;50.966;7.094;2023-05-29T08:16:20;7.82;;;3.10;;
11988;SDS011;6054;50.966;7.094;2023-05-29T08:18:48;8.02;;;3.75;;
11988;SDS011;6054;50.966;7.094;2023-05-29T08:21:16;7.55;;;3.35;;
11988;SDS011;6054;50.966;7.094;2023-05-29T08:23:43;6.90;;;3.53;;
11988;SDS011;6054;50.966;7.094;2023-05-29T08:26:10;6.43;;;3.20;;
11988;SDS011;6054;50.966;7.094;2023-05-29T08:28:37;8.10;;;3.53;;
11988;SDS011;6054;50.966;7.094;2023-05-29T08:31:04;6.88;;;3.33;;
11988;SDS011;6054;50.966;7.094;2023-05-29T08:33:31;7.22;;;3.78;;
11988;SDS011;6054;50.966;7.094;2023-05-29T08:35:58;7.70;;;3.38;;
11988;SDS011;6054;50.966;7.094;2023-05-29T08:38:27;10.55;;;3.20;;
11988;SDS011;6054;50.966;7.094;2023-05-29T08:40:54;7.32;;;3.50;;
11988;SDS011;6054;50.966;7.094;2023-05-29T08:43:23;8.82;;;3.47;;
11988;SDS011;6054;50.966;7.094;2023-05-29T08:45:52;9.05;;;3.70;;
11988;SDS011;6054;50.966;7.094;2023-05-29T08:50:48;6.22;;;3.08;;
11988;SDS011;6054;50.966;7.094;2023-05-29T08:53:17;5.75;;;3.72;;
11988;SDS011;6054;50.966;7.094;2023-05-29T08:55:46;9.48;;;3.30;;
11988;SDS011;6054;50.966;7.094;2023-05-29T08:58:13;9.77;;;3.72;;
11988;SDS011;6054;50.966;7.094;2023-05-29T09:00:40;7.40;;;3.10;;
11988;SDS011;6054;50.966;7.094;2023-05-29T09:03:07;10.90;;;3.28;;
11988;SDS011;6054;50.966;7.094;2023-05-29T09:05:34;6.40;;;3.20;;
11988;SDS011;6054;50.966;7.094;2023-05-29T09:08:04;7.45;;;3.45;;
11988;SDS011;6054;50.966;7.094;2023-05-29T09:10:32;7.20;;;3.03;;
11988;SDS011;6054;50.966;7.094;2023-05-29T09:13:00;10.48;;;3.40;;
11988;SDS011;6054;50.966;7.094;2023-05-29T09:15:28;10.10;;;3.88;;
11988;SDS011;6054;50.966;7.094;2023-05-29T09:17:57;9.45;;;3.40;;
11988;SDS011;6054;50.966;7.094;2023-05-29T09:20:24;8.48;;;3.45;;
11988;SDS011;6054;50.966;7.094;2023-05-29T09:22:53;10.73;;;3.65;;
11988;SDS011;6054;50.966;7.094;2023-05-29T09:25:20;7.57;;;3.28;;
11988;SDS011;6054;50.966;7.094;2023-05-29T09:27:50;8.95;;;3.38;;
11988;SDS011;6054;50.966;7.094;2023-05-29T09:30:31;7.97;;;3.13;;
11988;SDS011;6054;50.966;7.094;2023-05-29T09:33:00;10.75;;;4.13;;
11988;SDS011;6054;50.966;7.094;2023-05-29T09:35:31;10.35;;;3.38;;
11988;SDS011;6054;50.966;7.094;2023-05-29T09:38:02;7.45;;;3.38;;
11988;SDS011;6054;50.966;7.094;2023-05-29T09:40:29;10.65;;;3.22;;
11988;SDS011;6054;50.966;7.094;2023-05-29T09:43:01;6.97;;;3.08;;
11988;SDS011;6054;50.966;7.094;2023-05-29T09:45:34;9.38;;;3.47;;
11988;SDS011;6054;50.966;7.094;2023-05-29T09:48:04;5.97;;;3.22;;
11988;SDS011;6054;50.966;7.094;2023-05-29T09:50:32;9.23;;;3.67;;
11988;SDS011;6054;50.966;7.094;2023-05-29T09:53:00;7.57;;;2.80;;
11988;SDS011;6054;50.966;7.094;2023-05-29T09:55:27;8.25;;;3.22;;
11988;SDS011;6054;50.966;7.094;2023-05-29T09:57:55;7.85;;;3.35;;
11988;SDS011;6054;50.966;7.094;2023-05-29T10:00:22;8.45;;;3.38;;
11988;SDS011;6054;50.966;7.094;2023-05-29T10:02:50;11.05;;;3.38;;
11988;SDS011;6054;50.966;7.094;2023-05-29T10:05:17;8.85;;;2.85;;
11988;SDS011;6054;50.966;7.094;2023-05-29T10:07:44;10.00;;;3.63;;
11988;SDS011;6054;50.966;7.094;2023-05-29T10:10:13;9.32;;;3.00;;
11988;SDS011;6054;50.966;7.094;2023-05-29T10:12:42;8.55;;;3.20;;
11988;SDS011;6054;50.966;7.094;2023-05-29T10:15:11;7.43;;;3.00;;
11988;SDS011;6054;50.966;7.094;2023-05-29T10:17:39;9.02;;;3.63;;
11988;SDS011;6054;50.966;7.094;2023-05-29T10:20:16;6.32;;;2.83;;
11988;SDS011;6054;50.966;7.094;2023-05-29T10:22:45;12.90;;;3.40;;
11988;SDS011;6054;50.966;7.094;2023-05-29T10:25:13;6.88;;;3.03;;
11988;SDS011;6054;50.966;7.094;2023-05-29T10:27:43;6.63;;;3.10;;
11988;SDS011;6054;50.966;7.094;2023-05-29T10:30:12;7.68;;;3.10;;
11988;SDS011;6054;50.966;7.094;2023-05-29T10:32:52;6.70;;;2.97;;
11988;SDS011;6054;50.966;7.094;2023-05-29T10:35:35;10.68;;;3.80;;
11988;SDS011;6054;50.966;7.094;2023-05-29T10:38:10;14.45;;;3.88;;
11988;SDS011;6054;50.966;7.094;2023-05-29T10:40:39;11.38;;;3.45;;
11988;SDS011;6054;50.966;7.094;2023-05-29T10:43:05;7.53;;;3.72;;
11988;SDS011;6054;50.966;7.094;2023-05-29T10:45:48;14.38;;;4.03;;
11988;SDS011;6054;50.966;7.094;2023-05-29T10:51:04;4.93;;;3.03;;
11988;SDS011;6054;50.966;7.094;2023-05-29T10:53:32;7.18;;;3.38;;
11988;SDS011;6054;50.966;7.094;2023-05-29T10:56:05;13.25;;;3.63;;
11988;SDS011;6054;50.966;7.094;2023-05-29T10:58:36;7.38;;;3.05;;
11988;SDS011;6054;50.966;7.094;2023-05-29T11:01:03;9.65;;;3.50;;
11988;SDS011;6054;50.966;7.094;2023-05-29T11:03:30;7.72;;;3.17;;
11988;SDS011;6054;50.966;7.094;2023-05-29T11:05:58;8.75;;;3.22;;
11988;SDS011;6054;50.966;7.094;2023-05-29T11:08:33;10.23;;;3.42;;
11988;SDS011;6054;50.966;7.094;2023-05-29T11:11:02;6.50;;;3.20;;
11988;SDS011;6054;50.966;7.094;2023-05-29T11:13:31;7.25;;;3.20;;
11988;SDS011;6054;50.966;7.094;2023-05-29T11:16:04;8.57;;;2.90;;
11988;SDS011;6054;50.966;7.094;2023-05-29T11:18:39;5.90;;;2.97;;
11988;SDS011;6054;50.966;7.094;2023-05-29T11:21:12;8.70;;;3.42;;
11988;SDS011;6054;50.966;7.094;2023-05-29T11:23:49;10.88;;;3.58;;
11988;SDS011;6054;50.966;7.094;2023-05-29T11:26:17;9.23;;;3.40;;
11988;SDS011;6054;50.966;7.094;2023-05-29T11:28:45;10.45;;;3.30;;
11988;SDS011;6054;50.966;7.094;2023-05-29T11:31:12;7.45;;;3.30;;
11988;SDS011;6054;50.966;7.094;2023-05-29T11:33:40;6.65;;;3.20;;
11988;SDS011;6054;50.966;7.094;2023-05-29T11:36:11;8.20;;;3.40;;
11988;SDS011;6054;50.966;7.094;2023-05-29T11:38:38;6.57;;;3.17;;
11988;SDS011;6054;50.966;7.094;2023-05-29T11:41:06;7.47;;;3.13;;
11988;SDS011;6054;50.966;7.094;2023-05-29T11:43:35;7.00;;;3.03;;
11988;SDS011;6054;50.966;7.094;2023-05-29T11:46:01;7.55;;;3.20;;
11988;SDS011;6054;50.966;7.094;2023-05-29T11:48:28;7.70;;;3.50;;
11988;SDS011;6054;50.966;7.094;2023-05-29T11:50:55;6.00;;;3.00;;
11988;SDS011;6054;50.966;7.094;2023-05-29T11:53:22;8.20;;;3.58;;
11988;SDS011;6054;50.966;7.094;2023-05-29T11:55:51;7.13;;;2.92;;
11988;SDS011;6054;50.966;7.094;2023-05-29T11:58:19;7.95;;;3.53;;
11988;SDS011;6054;50.966;7.094;2023-05-29T12:00:47;5.47;;;3.30;;
11988;SDS011;6054;50.966;7.094;2023-05-29T12:03:15;7.45;;;3.30;;
11988;SDS011;6054;50.966;7.094;2023-05-29T12:05:46;9.52;;;3.40;;
11988;SDS011;6054;50.966;7.094;2023-05-29T12:08:17;7.95;;;3.10;;
11988;SDS011;6054;50.966;7.094;2023-05-29T12:10:47;7.72;;;3.65;;
11988;SDS011;6054;50.966;7.094;2023-05-29T12:13:15;9.68;;;3.65;;
11988;SDS011;6054;50.966;7.094;2023-05-29T12:15:44;6.55;;;3.38;;
11988;SDS011;6054;50.966;7.094;2023-05-29T12:18:14;8.13;;;3.60;;
11988;SDS011;6054;50.966;7.094;2023-05-29T12:20:42;8.60;;;3.42;;
11988;SDS011;6054;50.966;7.094;2023-05-29T12:23:09;8.40;;;3.33;;
11988;SDS011;6054;50.966;7.094;2023-05-29T12:25:39;8.63;;;3.45;;
11988;SDS011;6054;50.966;7.094;2023-05-29T12:28:08;9.88;;;3.63;;
11988;SDS011;6054;50.966;7.094;2023-05-29T12:30:38;7.05;;;3.28;;
11988;SDS011;6054;50.966;7.094;2023-05-29T12:33:09;7.30;;;3.20;;
11988;SDS011;6054;50.966;7.094;2023-05-29T12:35:36;7.65;;;3.42;;
11988;SDS011;6054;50.966;7.094;2023-05-29T12:38:04;11.50;;;3.30;;
11988;SDS011;6054;50.966;7.094;2023-05-29T12:40:33;10.10;;;3.97;;
11988;SDS011;6054;50.966;7.094;2023-05-29T12:43:02;7.05;;;3.38;;
11988;SDS011;6054;50.966;7.094;2023-05-29T12:45:30;10.32;;;3.70;;
11988;SDS011;6054;50.966;7.094;2023-05-29T12:47:58;6.97;;;3.17;;
11988;SDS011;6054;50.966;7.094;2023-05-29T12:50:29;9.07;;;3.30;;
11988;SDS011;6054;50.966;7.094;2023-05-29T12:52:57;6.38;;;3.40;;
11988;SDS011;6054;50.966;7.094;2023-05-29T12:55:26;11.95;;;3.40;;
11988;SDS011;6054;50.966;7.094;2023-05-29T12:57:53;6.20;;;3.05;;
11988;SDS011;6054;50.966;7.094;2023-05-29T13:00:20;6.93;;;2.78;;
11988;SDS011;6054;50.966;7.094;2023-05-29T13:02:48;13.65;;;3.40;;
11988;SDS011;6054;50.966;7.094;2023-05-29T13:05:15;9.32;;;3.67;;
11988;SDS011;6054;50.966;7.094;2023-05-29T13:07:45;6.68;;;3.03;;
11988;SDS011;6054;50.966;7.094;2023-05-29T13:10:13;11.07;;;3.65;;
11988;SDS011;6054;50.966;7.094;2023-05-29T13:12:40;11.00;;;3.60;;
11988;SDS011;6054;50.966;7.094;2023-05-29T13:15:07;8.50;;;3.50;;
11988;SDS011;6054;50.966;7.094;2023-05-29T13:17:37;9.68;;;3.35;;
11988;SDS011;6054;50.966;7.094;2023-05-29T13:20:06;7.35;;;2.95;;
11988;SDS011;6054;50.966;7.094;2023-05-29T13:22:35;7.88;;;3.25;;
11988;SDS011;6054;50.966;7.094;2023-05-29T13:25:03;7.82;;;3.50;;
11988;SDS011;6054;50.966;7.094;2023-05-29T13:27:32;7.47;;;3.60;;
11988;SDS011;6054;50.966;7.094;2023-05-29T13:30:00;7.07;;;3.13;;
11988;SDS011;6054;50.966;7.094;2023-05-29T13:32:27;6.72;;;3.22;;
11988;SDS011;6054;50.966;7.094;2023-05-29T13:34:54;7.70;;;3.40;;
11988;SDS011;6054;50.966;7.094;2023-05-29T13:37:21;7.20;;;2.67;;
11988;SDS011;6054;50.966;7.094;2023-05-29T13:39:48;8.63;;;3.33;;
11988;SDS011;6054;50.966;7.094;2023-05-29T13:42:17;13.35;;;3.30;;
11988;SDS011;6054;50.966;7.094;2023-05-29T13:44:44;7.25;;;3.08;;
11988;SDS011;6054;50.966;7.094;2023-05-29T13:47:11;9.43;;;3.10;;
11988;SDS011;6054;50.966;7.094;2023-05-29T13:49:38;11.20;;;3.88;;
11988;SDS011;6054;50.966;7.094;2023-05-29T13:52:05;6.53;;;3.33;;
11988;SDS011;6054;50.966;7.094;2023-05-29T13:54:32;8.45;;;2.95;;
11988;SDS011;6054;50.966;7.094;2023-05-29T13:57:01;10.52;;;3.58;;
11988;SDS011;6054;50.966;7.094;2023-05-29T13:59:29;7.50;;;2.95;;
11988;SDS011;6054;50.966;7.094;2023-05-29T14:01:56;7.18;;;3.25;;
11988;SDS011;6054;50.966;7.094;2023-05-29T14:04:23;8.32;;;3.50;;
11988;SDS011;6054;50.966;7.094;2023-05-29T14:06:50;9.52;;;3.17;;
11988;SDS011;6054;50.966;7.094;2023-05-29T14:09:18;6.20;;;2.92;;
11988;SDS011;6054;50.966;7.094;2023-05-29T14:11:51;7.13;;;2.95;;
11988;SDS011;6054;50.966;7.094;2023-05-29T14:14:18;4.15;;;2.75;;
11988;SDS011;6054;50.966;7.094;2023-05-29T14:16:46;7.40;;;2.90;;
11988;SDS011;6054;50.966;7.094;2023-05-29T14:19:14;10.25;;;3.10;;
11988;SDS011;6054;50.966;7.094;2023-05-29T14:21:40;6.15;;;3.15;;
11988;SDS011;6054;50.966;7.094;2023-05-29T14:24:07;6.82;;;3.30;;
11988;SDS011;6054;50.966;7.094;2023-05-29T14:26:34;7.85;;;3.08;;
11988;SDS011;6054;50.966;7.094;2023-05-29T14:29:01;8.68;;;3.20;;
11988;SDS011;6054;50.966;7.094;2023-05-29T14:31:28;9.57;;;3.72;;
11988;SDS011;6054;50.966;7.094;2023-05-29T14:33:57;5.03;;;2.90;;
11988;SDS011;6054;50.966;7.094;2023-05-29T14:36:23;9.40;;;2.90;;
11988;SDS011;6054;50.966;7.094;2023-05-29T14:38:50;10.50;;;3.65;;
11988;SDS011;6054;50.966;7.094;2023-05-29T14:41:17;8.38;;;3.30;;
11988;SDS011;6054;50.966;7.094;2023-05-29T14:43:44;6.38;;;2.78;;
11988;SDS011;6054;50.966;7.094;2023-05-29T14:46:11;5.35;;;3.05;;
11988;SDS011;6054;50.966;7.094;2023-05-29T14:48:38;6.35;;;2.88;;
11988;SDS011;6054;50.966;7.094;2023-05-29T14:51:06;7.93;;;3.47;;
11988;SDS011;6054;50.966;7.094;2023-05-29T14:53:35;10.32;;;3.47;;
11988;SDS011;6054;50.966;7.094;2023-05-29T14:56:03;8.00;;;3.30;;
11988;SDS011;6054;50.966;7.094;2023-05-29T14:58:30;5.35;;;2.70;;
11988;SDS011;6054;50.966;7.094;2023-05-29T15:00:57;7.93;;;3.45;;
11988;SDS011;6054;50.966;7.094;2023-05-29T15:03:24;6.20;;;3.20;;
11988;SDS011;6054;50.966;7.094;2023-05-29T15:05:52;9.95;;;3.22;;
11988;SDS011;6054;50.966;7.094;2023-05-29T15:08:20;7.78;;;3.17;;
11988;SDS011;6054;50.966;7.094;2023-05-29T15:10:47;6.45;;;2.90;;